sensor_id;sensor_type;location;lat;lon;timestamp;P1;durP1;ratioP1;P2;durP2;ratioP2
41861;SDS011;27537;57.134;-2.136;2022-11-20T00:01:26;18.75;;;4.50;;
41861;SDS011;27537;57.134;-2.136;2022-11-20T00:03:54;20.15;;;4.65;;
41861;SDS011;27537;57.134;-2.136;2022-11-20T00:06:22;19.95;;;4.35;;
41861;SDS011;27537;57.134;-2.136;2022-11-20T00:08:50;21.17;;;4.28;;
41861;SDS011;27537;57.134;-2.136;2022-11-20T00:11:20;20.85;;;3.50;;
41861;SDS011;27537;57.134;-2.136;2022-11-20T00:13:50;20.13;;;3.85;;
41861;SDS011;27537;57.134;-2.136;2022-11-20T00:16:20;23.20;;;3.38;;
41861;SDS011;27537;57.134;-2.136;2022-11-20T00:18:49;16.98;;;3.90;;
41861;SDS011;27537;57.134;-2.136;2022-11-20T00:21:17;19.45;;;3.53;;
41861;SDS011;27537;57.134;-2.136;2022-11-20T00:23:47;22.85;;;3.75;;
41861;SDS011;27537;57.134;-2.136;2022-11-20T00:26:20;21.67;;;3.30;;
41861;SDS011;27537;57.134;-2.136;2022-11-20T00:28:49;14.32;;;3.22;;
41861;SDS011;27537;57.134;-2.136;2022-11-20T00:31:18;14.73;;;4.00;;
41861;SDS011;27537;57.134;-2.136;2022-11-20T00:33:46;16.35;;;3.38;;
41861;SDS011;27537;57.134;-2.136;2022-11-20T00:36:14;30.13;;;5.72;;
41861;SDS011;27537;57.134;-2.136;2022-11-20T00:38:43;13.95;;;3.40;;
41861;SDS011;27537;57.134;-2.136;2022-11-20T00:41:12;11.60;;;3.00;;
41861;SDS011;27537;57.134;-2.136;2022-11-20T00:43:40;24.10;;;3.67;;
41861;SDS011;27537;57.134;-2.136;2022-11-20T00:46:17;20.73;;;5.35;;
41861;SDS011;27537;57.134;-2.136;2022-11-20T00:48:46;18.52;;;4.18;;
41861;SDS011;27537;57.134;-2.136;2022-11-20T00:51:14;18.15;;;3.63;;
41861;SDS011;27537;57.134;-2.136;2022-11-20T00:53:42;17.38;;;3.28;;
41861;SDS011;27537;57.134;-2.136;2022-11-20T00:56:11;17.15;;;4.00;;
41861;SDS011;27537;57.134;-2.136;2022-11-20T00:58:42;20.90;;;4.60;;
41861;SDS011;27537;57.134;-2.136;2022-11-20T01:01:20;16.50;;;3.33;;
41861;SDS011;27537;57.134;-2.136;2022-11-20T01:03:51;18.55;;;4.72;;
41861;SDS011;27537;57.134;-2.136;2022-11-20T01:06:53;12.43;;;3.25;;
41861;SDS011;27537;57.134;-2.136;2022-11-20T01:09:13;16.55;;;4.20;;
41861;SDS011;27537;57.134;-2.136;2022-11-20T01:11:42;17.02;;;4.05;;
41861;SDS011;27537;57.134;-2.136;2022-11-20T01:14:11;19.48;;;3.97;;
41861;SDS011;27537;57.134;-2.136;2022-11-20T01:16:41;21.13;;;6.05;;
41861;SDS011;27537;57.134;-2.136;2022-11-20T01:19:14;21.65;;;4.28;;
41861;SDS011;27537;57.134;-2.136;2022-11-20T01:21:44;23.50;;;3.83;;
41861;SDS011;27537;57.134;-2.136;2022-11-20T01:24:12;20.50;;;3.78;;
41861;SDS011;27537;57.134;-2.136;2022-11-20T01:26:42;16.77;;;3.63;;
41861;SDS011;27537;57.134;-2.136;2022-11-20T01:29:14;20.27;;;3.58;;
41861;SDS011;27537;57.134;-2.136;2022-11-20T01:31:43;19.10;;;3.78;;
41861;SDS011;27537;57.134;-2.136;2022-11-20T01:34:11;15.63;;;4.35;;
41861;SDS011;27537;57.134;-2.136;2022-11-20T01:36:40;14.80;;;3.65;;
41861;SDS011;27537;57.134;-2.136;2022-11-20T01:39:12;16.08;;;4.32;;
41861;SDS011;27537;57.134;-2.136;2022-11-20T01:41:41;20.23;;;4.22;;
41861;SDS011;27537;57.134;-2.136;2022-11-20T01:44:43;19.75;;;4.15;;
41861;SDS011;27537;57.134;-2.136;2022-11-20T01:50:01;13.55;;;3.13;;
41861;SDS011;27537;57.134;-2.136;2022-11-20T01:52:36;18.97;;;4.73;;
41861;SDS011;27537;57.134;-2.136;2022-11-20T01:55:09;25.83;;;4.65;;
41861;SDS011;27537;57.134;-2.136;2022-11-20T01:57:41;15.63;;;4.53;;
41861;SDS011;27537;57.134;-2.136;2022-11-20T02:00:12;24.23;;;4.68;;
41861;SDS011;27537;57.134;-2.136;2022-11-20T02:02:44;15.95;;;4.72;;
41861;SDS011;27537;57.134;-2.136;2022-11-20T02:05:18;25.83;;;4.93;;
41861;SDS011;27537;57.134;-2.136;2022-11-20T02:07:53;21.15;;;5.05;;
41861;SDS011;27537;57.134;-2.136;2022-11-20T02:10:21;21.85;;;4.28;;
41861;SDS011;27537;57.134;-2.136;2022-11-20T02:12:48;25.17;;;4.53;;
41861;SDS011;27537;57.134;-2.136;2022-11-20T02:15:34;16.20;;;3.75;;
41861;SDS011;27537;57.134;-2.136;2022-11-20T02:18:00;22.00;;;4.40;;
41861;SDS011;27537;57.134;-2.136;2022-11-20T02:20:27;22.25;;;3.85;;
41861;SDS011;27537;57.134;-2.136;2022-11-20T02:22:59;22.52;;;4.40;;
41861;SDS011;27537;57.134;-2.136;2022-11-20T02:25:57;21.42;;;4.35;;
41861;SDS011;27537;57.134;-2.136;2022-11-20T02:28:24;15.15;;;3.90;;
41861;SDS011;27537;57.134;-2.136;2022-11-20T02:30:51;18.38;;;4.80;;
41861;SDS011;27537;57.134;-2.136;2022-11-20T02:33:18;13.13;;;2.97;;
41861;SDS011;27537;57.134;-2.136;2022-11-20T02:35:45;19.23;;;4.40;;
41861;SDS011;27537;57.134;-2.136;2022-11-20T02:38:13;17.17;;;3.55;;
41861;SDS011;27537;57.134;-2.136;2022-11-20T02:40:41;16.90;;;3.15;;
41861;SDS011;27537;57.134;-2.136;2022-11-20T02:43:08;17.08;;;3.40;;
41861;SDS011;27537;57.134;-2.136;2022-11-20T02:45:35;15.13;;;3.90;;
41861;SDS011;27537;57.134;-2.136;2022-11-20T02:48:02;19.30;;;3.88;;
41861;SDS011;27537;57.134;-2.136;2022-11-20T02:50:29;16.80;;;4.00;;
41861;SDS011;27537;57.134;-2.136;2022-11-20T02:52:56;21.42;;;4.20;;
41861;SDS011;27537;57.134;-2.136;2022-11-20T02:55:22;19.73;;;5.18;;
41861;SDS011;27537;57.134;-2.136;2022-11-20T02:57:49;13.75;;;3.92;;
41861;SDS011;27537;57.134;-2.136;2022-11-20T03:00:16;19.45;;;3.40;;
41861;SDS011;27537;57.134;-2.136;2022-11-20T03:02:42;17.50;;;3.85;;
41861;SDS011;27537;57.134;-2.136;2022-11-20T03:05:09;16.05;;;4.30;;
41861;SDS011;27537;57.134;-2.136;2022-11-20T03:07:36;19.58;;;4.43;;
41861;SDS011;27537;57.134;-2.136;2022-11-20T03:10:03;19.70;;;4.57;;
41861;SDS011;27537;57.134;-2.136;2022-11-20T03:12:30;21.65;;;4.80;;
41861;SDS011;27537;57.134;-2.136;2022-11-20T03:14:57;22.80;;;4.63;;
41861;SDS011;27537;57.134;-2.136;2022-11-20T03:17:24;17.48;;;4.55;;
41861;SDS011;27537;57.134;-2.136;2022-11-20T03:19:50;26.40;;;5.32;;
41861;SDS011;27537;57.134;-2.136;2022-11-20T03:22:17;19.02;;;4.70;;
41861;SDS011;27537;57.134;-2.136;2022-11-20T03:24:44;15.90;;;4.32;;
41861;SDS011;27537;57.134;-2.136;2022-11-20T03:27:11;24.40;;;5.82;;
41861;SDS011;27537;57.134;-2.136;2022-11-20T03:29:37;14.00;;;3.80;;
41861;SDS011;27537;57.134;-2.136;2022-11-20T03:32:04;19.30;;;4.00;;
41861;SDS011;27537;57.134;-2.136;2022-11-20T03:34:31;20.98;;;4.20;;
41861;SDS011;27537;57.134;-2.136;2022-11-20T03:36:58;19.17;;;5.10;;
41861;SDS011;27537;57.134;-2.136;2022-11-20T03:39:25;16.50;;;3.78;;
41861;SDS011;27537;57.134;-2.136;2022-11-20T03:41:52;17.73;;;4.80;;
41861;SDS011;27537;57.134;-2.136;2022-11-20T03:44:20;25.35;;;4.72;;
41861;SDS011;27537;57.134;-2.136;2022-11-20T03:46:47;16.80;;;3.75;;
41861;SDS011;27537;57.134;-2.136;2022-11-20T03:49:14;12.23;;;3.45;;
41861;SDS011;27537;57.134;-2.136;2022-11-20T03:51:41;11.52;;;2.78;;
41861;SDS011;27537;57.134;-2.136;2022-11-20T03:54:08;9.48;;;2.00;;
41861;SDS011;27537;57.134;-2.136;2022-11-20T03:56:37;11.68;;;2.80;;
41861;SDS011;27537;57.134;-2.136;2022-11-20T03:59:05;11.73;;;2.63;;
41861;SDS011;27537;57.134;-2.136;2022-11-20T04:01:33;11.85;;;2.75;;
41861;SDS011;27537;57.134;-2.136;2022-11-20T04:04:01;11.60;;;2.58;;
41861;SDS011;27537;57.134;-2.136;2022-11-20T04:06:30;13.23;;;2.50;;
41861;SDS011;27537;57.134;-2.136;2022-11-20T04:09:00;10.52;;;2.50;;
41861;SDS011;27537;57.134;-2.136;2022-11-20T04:11:28;10.27;;;2.13;;
41861;SDS011;27537;57.134;-2.136;2022-11-20T04:13:59;7.13;;;2.03;;
41861;SDS011;27537;57.134;-2.136;2022-11-20T04:16:32;8.88;;;2.47;;
41861;SDS011;27537;57.134;-2.136;2022-11-20T04:19:01;15.40;;;3.05;;
41861;SDS011;27537;57.134;-2.136;2022-11-20T04:21:29;15.57;;;3.42;;
41861;SDS011;27537;57.134;-2.136;2022-11-20T04:23:56;13.55;;;2.35;;
41861;SDS011;27537;57.134;-2.136;2022-11-20T04:26:24;18.63;;;4.07;;
41861;SDS011;27537;57.134;-2.136;2022-11-20T04:28:51;11.40;;;2.95;;
41861;SDS011;27537;57.134;-2.136;2022-11-20T04:31:19;14.35;;;2.50;;
41861;SDS011;27537;57.134;-2.136;2022-11-20T04:33:48;9.48;;;3.00;;
41861;SDS011;27537;57.134;-2.136;2022-11-20T04:36:16;17.20;;;3.28;;
41861;SDS011;27537;57.134;-2.136;2022-11-20T04:38:54;9.57;;;2.47;;
41861;SDS011;27537;57.134;-2.136;2022-11-20T04:41:26;11.50;;;2.70;;
41861;SDS011;27537;57.134;-2.136;2022-11-20T04:43:55;8.40;;;1.95;;
41861;SDS011;27537;57.134;-2.136;2022-11-20T04:46:26;12.88;;;3.53;;
41861;SDS011;27537;57.134;-2.136;2022-11-20T04:48:54;13.07;;;2.67;;
41861;SDS011;27537;57.134;-2.136;2022-11-20T04:51:20;9.90;;;2.40;;
41861;SDS011;27537;57.134;-2.136;2022-11-20T04:53:47;9.93;;;2.60;;
41861;SDS011;27537;57.134;-2.136;2022-11-20T04:56:14;13.00;;;2.67;;
41861;SDS011;27537;57.134;-2.136;2022-11-20T04:58:42;10.65;;;2.35;;
41861;SDS011;27537;57.134;-2.136;2022-11-20T05:01:10;12.20;;;2.10;;
41861;SDS011;27537;57.134;-2.136;2022-11-20T05:03:41;17.70;;;2.38;;
41861;SDS011;27537;57.134;-2.136;2022-11-20T05:06:10;11.75;;;2.85;;
41861;SDS011;27537;57.134;-2.136;2022-11-20T05:08:39;8.05;;;2.47;;
41861;SDS011;27537;57.134;-2.136;2022-11-20T05:11:07;9.73;;;2.13;;
41861;SDS011;27537;57.134;-2.136;2022-11-20T05:13:45;14.07;;;3.03;;
41861;SDS011;27537;57.134;-2.136;2022-11-20T05:16:13;13.30;;;2.33;;
41861;SDS011;27537;57.134;-2.136;2022-11-20T05:18:41;10.57;;;3.38;;
41861;SDS011;27537;57.134;-2.136;2022-11-20T05:21:09;9.57;;;2.15;;
41861;SDS011;27537;57.134;-2.136;2022-11-20T05:23:37;9.93;;;2.67;;
41861;SDS011;27537;57.134;-2.136;2022-11-20T05:26:05;11.38;;;2.55;;
41861;SDS011;27537;57.134;-2.136;2022-11-20T05:28:33;7.80;;;2.08;;
41861;SDS011;27537;57.134;-2.136;2022-11-20T05:31:19;7.53;;;1.85;;
41861;SDS011;27537;57.134;-2.136;2022-11-20T05:33:53;7.27;;;2.23;;
41861;SDS011;27537;57.134;-2.136;2022-11-20T05:36:21;7.35;;;1.70;;
41861;SDS011;27537;57.134;-2.136;2022-11-20T05:38:47;9.45;;;2.47;;
41861;SDS011;27537;57.134;-2.136;2022-11-20T05:41:17;10.70;;;2.80;;
41861;SDS011;27537;57.134;-2.136;2022-11-20T05:43:46;9.75;;;2.50;;
41861;SDS011;27537;57.134;-2.136;2022-11-20T05:46:14;9.30;;;2.53;;
41861;SDS011;27537;57.134;-2.136;2022-11-20T05:48:45;11.20;;;2.65;;
41861;SDS011;27537;57.134;-2.136;2022-11-20T05:51:14;9.35;;;2.65;;
41861;SDS011;27537;57.134;-2.136;2022-11-20T05:53:43;10.52;;;2.92;;
41861;SDS011;27537;57.134;-2.136;2022-11-20T05:56:18;14.38;;;2.80;;
41861;SDS011;27537;57.134;-2.136;2022-11-20T05:58:45;6.55;;;2.20;;
41861;SDS011;27537;57.134;-2.136;2022-11-20T06:03:45;9.80;;;2.40;;
41861;SDS011;27537;57.134;-2.136;2022-11-20T06:06:14;12.70;;;2.28;;
41861;SDS011;27537;57.134;-2.136;2022-11-20T06:08:42;9.60;;;2.63;;
41861;SDS011;27537;57.134;-2.136;2022-11-20T06:11:10;10.18;;;2.13;;
41861;SDS011;27537;57.134;-2.136;2022-11-20T06:13:39;12.73;;;2.85;;
41861;SDS011;27537;57.134;-2.136;2022-11-20T06:16:08;10.88;;;2.58;;
41861;SDS011;27537;57.134;-2.136;2022-11-20T06:18:35;16.20;;;3.17;;
41861;SDS011;27537;57.134;-2.136;2022-11-20T06:23:33;7.85;;;2.15;;
41861;SDS011;27537;57.134;-2.136;2022-11-20T06:26:03;10.15;;;2.15;;
41861;SDS011;27537;57.134;-2.136;2022-11-20T06:28:31;6.47;;;2.15;;
41861;SDS011;27537;57.134;-2.136;2022-11-20T06:30:57;10.10;;;2.30;;
41861;SDS011;27537;57.134;-2.136;2022-11-20T06:33:24;8.43;;;2.45;;
41861;SDS011;27537;57.134;-2.136;2022-11-20T06:35:51;11.35;;;2.42;;
41861;SDS011;27537;57.134;-2.136;2022-11-20T06:38:25;10.70;;;2.78;;
41861;SDS011;27537;57.134;-2.136;2022-11-20T06:40:53;12.60;;;2.83;;
41861;SDS011;27537;57.134;-2.136;2022-11-20T06:43:20;10.93;;;3.13;;
41861;SDS011;27537;57.134;-2.136;2022-11-20T06:45:51;11.02;;;3.00;;
41861;SDS011;27537;57.134;-2.136;2022-11-20T06:48:19;9.75;;;2.65;;
41861;SDS011;27537;57.134;-2.136;2022-11-20T06:50:46;12.38;;;3.78;;
41861;SDS011;27537;57.134;-2.136;2022-11-20T06:53:13;12.20;;;2.70;;
41861;SDS011;27537;57.134;-2.136;2022-11-20T06:55:43;10.20;;;2.30;;
41861;SDS011;27537;57.134;-2.136;2022-11-20T06:58:14;14.50;;;2.90;;
41861;SDS011;27537;57.134;-2.136;2022-11-20T07:00:41;9.48;;;2.83;;
41861;SDS011;27537;57.134;-2.136;2022-11-20T07:03:09;12.38;;;2.33;;
41861;SDS011;27537;57.134;-2.136;2022-11-20T07:05:37;12.05;;;3.15;;
41861;SDS011;27537;57.134;-2.136;2022-11-20T07:08:05;7.05;;;2.03;;
41861;SDS011;27537;57.134;-2.136;2022-11-20T07:10:32;8.90;;;2.22;;
41861;SDS011;27537;57.134;-2.136;2022-11-20T07:12:59;12.07;;;3.05;;
41861;SDS011;27537;57.134;-2.136;2022-11-20T07:15:26;12.38;;;2.60;;
41861;SDS011;27537;57.134;-2.136;2022-11-20T07:17:53;14.73;;;3.30;;
41861;SDS011;27537;57.134;-2.136;2022-11-20T07:20:19;12.55;;;2.85;;
41861;SDS011;27537;57.134;-2.136;2022-11-20T07:22:46;9.93;;;2.17;;
41861;SDS011;27537;57.134;-2.136;2022-11-20T07:25:13;8.32;;;2.50;;
41861;SDS011;27537;57.134;-2.136;2022-11-20T07:27:39;10.38;;;3.00;;
41861;SDS011;27537;57.134;-2.136;2022-11-20T07:30:06;9.20;;;2.60;;
41861;SDS011;27537;57.134;-2.136;2022-11-20T07:32:34;12.88;;;2.38;;
41861;SDS011;27537;57.134;-2.136;2022-11-20T07:35:00;16.33;;;4.93;;
41861;SDS011;27537;57.134;-2.136;2022-11-20T07:37:27;8.23;;;2.95;;
41861;SDS011;27537;57.134;-2.136;2022-11-20T07:39:54;8.48;;;2.50;;
41861;SDS011;27537;57.134;-2.136;2022-11-20T07:42:20;9.63;;;2.00;;
41861;SDS011;27537;57.134;-2.136;2022-11-20T07:44:47;8.38;;;2.00;;
41861;SDS011;27537;57.134;-2.136;2022-11-20T07:47:14;8.73;;;2.25;;
41861;SDS011;27537;57.134;-2.136;2022-11-20T07:49:41;6.13;;;2.00;;
41861;SDS011;27537;57.134;-2.136;2022-11-20T07:52:07;10.40;;;2.53;;
41861;SDS011;27537;57.134;-2.136;2022-11-20T07:54:34;9.15;;;2.60;;
41861;SDS011;27537;57.134;-2.136;2022-11-20T07:57:01;8.63;;;2.38;;
41861;SDS011;27537;57.134;-2.136;2022-11-20T07:59:28;8.23;;;2.13;;
41861;SDS011;27537;57.134;-2.136;2022-11-20T08:01:54;9.10;;;2.67;;
41861;SDS011;27537;57.134;-2.136;2022-11-20T08:04:21;12.70;;;2.85;;
41861;SDS011;27537;57.134;-2.136;2022-11-20T08:06:51;11.43;;;2.30;;
41861;SDS011;27537;57.134;-2.136;2022-11-20T08:09:18;7.43;;;2.03;;
41861;SDS011;27537;57.134;-2.136;2022-11-20T08:11:45;14.30;;;2.38;;
41861;SDS011;27537;57.134;-2.136;2022-11-20T08:14:30;13.57;;;4.57;;
41861;SDS011;27537;57.134;-2.136;2022-11-20T08:16:57;11.05;;;2.53;;
41861;SDS011;27537;57.134;-2.136;2022-11-20T08:19:24;7.72;;;2.58;;
41861;SDS011;27537;57.134;-2.136;2022-11-20T08:21:50;13.60;;;2.70;;
41861;SDS011;27537;57.134;-2.136;2022-11-20T08:24:17;11.85;;;2.38;;
41861;SDS011;27537;57.134;-2.136;2022-11-20T08:26:44;10.82;;;2.85;;
41861;SDS011;27537;57.134;-2.136;2022-11-20T08:29:10;8.07;;;2.20;;
41861;SDS011;27537;57.134;-2.136;2022-11-20T08:31:37;7.25;;;2.25;;
41861;SDS011;27537;57.134;-2.136;2022-11-20T08:34:04;9.80;;;2.40;;
41861;SDS011;27537;57.134;-2.136;2022-11-20T08:36:35;6.47;;;1.80;;
41861;SDS011;27537;57.134;-2.136;2022-11-20T08:39:02;10.98;;;2.45;;
41861;SDS011;27537;57.134;-2.136;2022-11-20T08:41:29;6.45;;;1.85;;
41861;SDS011;27537;57.134;-2.136;2022-11-20T08:44:00;5.35;;;1.70;;
41861;SDS011;27537;57.134;-2.136;2022-11-20T08:46:31;4.18;;;1.45;;
41861;SDS011;27537;57.134;-2.136;2022-11-20T08:49:00;17.63;;;2.60;;
41861;SDS011;27537;57.134;-2.136;2022-11-20T08:51:27;7.57;;;2.50;;
41861;SDS011;27537;57.134;-2.136;2022-11-20T08:53:53;6.97;;;2.10;;
41861;SDS011;27537;57.134;-2.136;2022-11-20T08:56:20;11.10;;;1.88;;
41861;SDS011;27537;57.134;-2.136;2022-11-20T08:58:47;11.65;;;2.05;;
41861;SDS011;27537;57.134;-2.136;2022-11-20T09:01:33;8.80;;;2.17;;
41861;SDS011;27537;57.134;-2.136;2022-11-20T09:04:01;8.55;;;2.05;;
41861;SDS011;27537;57.134;-2.136;2022-11-20T09:06:27;11.10;;;1.90;;
41861;SDS011;27537;57.134;-2.136;2022-11-20T09:08:54;8.60;;;1.73;;
41861;SDS011;27537;57.134;-2.136;2022-11-20T09:11:21;9.43;;;1.90;;
41861;SDS011;27537;57.134;-2.136;2022-11-20T09:13:48;8.95;;;1.80;;
41861;SDS011;27537;57.134;-2.136;2022-11-20T09:16:15;7.60;;;2.30;;
41861;SDS011;27537;57.134;-2.136;2022-11-20T09:18:42;7.88;;;2.08;;
41861;SDS011;27537;57.134;-2.136;2022-11-20T09:21:09;7.45;;;1.42;;
41861;SDS011;27537;57.134;-2.136;2022-11-20T09:23:38;11.00;;;1.90;;
41861;SDS011;27537;57.134;-2.136;2022-11-20T09:26:06;16.48;;;3.75;;
41861;SDS011;27537;57.134;-2.136;2022-11-20T09:28:36;8.25;;;1.88;;
41861;SDS011;27537;57.134;-2.136;2022-11-20T09:31:07;10.48;;;2.10;;
41861;SDS011;27537;57.134;-2.136;2022-11-20T09:33:35;10.43;;;1.90;;
41861;SDS011;27537;57.134;-2.136;2022-11-20T09:36:02;8.13;;;2.15;;
41861;SDS011;27537;57.134;-2.136;2022-11-20T09:38:29;12.52;;;2.65;;
41861;SDS011;27537;57.134;-2.136;2022-11-20T09:40:57;11.32;;;3.15;;
41861;SDS011;27537;57.134;-2.136;2022-11-20T09:43:32;10.57;;;2.00;;
41861;SDS011;27537;57.134;-2.136;2022-11-20T09:49:09;9.05;;;2.05;;
41861;SDS011;27537;57.134;-2.136;2022-11-20T09:51:59;9.70;;;3.03;;
41861;SDS011;27537;57.134;-2.136;2022-11-20T09:54:34;8.10;;;2.05;;
41861;SDS011;27537;57.134;-2.136;2022-11-20T09:57:11;6.15;;;1.50;;
41861;SDS011;27537;57.134;-2.136;2022-11-20T09:59:43;8.32;;;1.65;;
41861;SDS011;27537;57.134;-2.136;2022-11-20T10:10:36;8.95;;;1.90;;
41861;SDS011;27537;57.134;-2.136;2022-11-20T10:13:22;7.93;;;1.98;;
41861;SDS011;27537;57.134;-2.136;2022-11-20T10:26:51;10.00;;;2.58;;
41861;SDS011;27537;57.134;-2.136;2022-11-20T10:29:43;7.53;;;1.83;;
41861;SDS011;27537;57.134;-2.136;2022-11-20T10:32:19;12.88;;;2.20;;
41861;SDS011;27537;57.134;-2.136;2022-11-20T10:34:59;10.57;;;2.58;;
41861;SDS011;27537;57.134;-2.136;2022-11-20T10:37:31;9.52;;;1.95;;
41861;SDS011;27537;57.134;-2.136;2022-11-20T10:40:19;15.07;;;2.85;;
41861;SDS011;27537;57.134;-2.136;2022-11-20T10:42:52;8.48;;;2.17;;
41861;SDS011;27537;57.134;-2.136;2022-11-20T10:48:11;10.10;;;2.15;;
41861;SDS011;27537;57.134;-2.136;2022-11-20T10:56:21;4.00;;;1.70;;
41861;SDS011;27537;57.134;-2.136;2022-11-20T10:59:03;8.05;;;1.92;;
41861;SDS011;27537;57.134;-2.136;2022-11-20T11:01:41;9.25;;;2.10;;
41861;SDS011;27537;57.134;-2.136;2022-11-20T11:04:54;8.32;;;2.38;;
41861;SDS011;27537;57.134;-2.136;2022-11-20T11:09:43;6.85;;;1.83;;
41861;SDS011;27537;57.134;-2.136;2022-11-20T11:12:13;9.60;;;2.38;;
41861;SDS011;27537;57.134;-2.136;2022-11-20T11:14:50;6.90;;;2.30;;
41861;SDS011;27537;57.134;-2.136;2022-11-20T11:17:26;7.53;;;2.08;;
41861;SDS011;27537;57.134;-2.136;2022-11-20T11:20:02;7.40;;;2.45;;
41861;SDS011;27537;57.134;-2.136;2022-11-20T11:22:30;8.80;;;2.40;;
41861;SDS011;27537;57.134;-2.136;2022-11-20T11:24:58;6.03;;;2.20;;
41861;SDS011;27537;57.134;-2.136;2022-11-20T11:27:25;9.23;;;3.00;;
41861;SDS011;27537;57.134;-2.136;2022-11-20T11:30:01;9.90;;;2.60;;
41861;SDS011;27537;57.134;-2.136;2022-11-20T11:32:30;7.68;;;2.38;;
41861;SDS011;27537;57.134;-2.136;2022-11-20T11:35:04;8.77;;;3.25;;
41861;SDS011;27537;57.134;-2.136;2022-11-20T11:37:38;9.10;;;2.80;;
41861;SDS011;27537;57.134;-2.136;2022-11-20T11:40:06;9.88;;;3.95;;
41861;SDS011;27537;57.134;-2.136;2022-11-20T11:42:54;12.68;;;2.70;;
41861;SDS011;27537;57.134;-2.136;2022-11-20T11:45:25;8.83;;;2.40;;
41861;SDS011;27537;57.134;-2.136;2022-11-20T11:47:53;7.32;;;2.30;;
41861;SDS011;27537;57.134;-2.136;2022-11-20T11:50:22;6.47;;;2.03;;
41861;SDS011;27537;57.134;-2.136;2022-11-20T12:00:35;4.40;;;1.85;;
41861;SDS011;27537;57.134;-2.136;2022-11-20T12:03:24;6.93;;;2.00;;
41861;SDS011;27537;57.134;-2.136;2022-11-20T12:05:58;5.47;;;2.03;;
41861;SDS011;27537;57.134;-2.136;2022-11-20T12:08:48;6.13;;;2.10;;
41861;SDS011;27537;57.134;-2.136;2022-11-20T12:11:17;5.95;;;1.95;;
41861;SDS011;27537;57.134;-2.136;2022-11-20T12:16:53;4.50;;;1.58;;
41861;SDS011;27537;57.134;-2.136;2022-11-20T12:19:23;6.00;;;1.95;;
41861;SDS011;27537;57.134;-2.136;2022-11-20T12:44:34;6.82;;;1.65;;
41861;SDS011;27537;57.134;-2.136;2022-11-20T12:52:53;7.18;;;3.33;;
41861;SDS011;27537;57.134;-2.136;2022-11-20T12:58:33;6.80;;;2.72;;
41861;SDS011;27537;57.134;-2.136;2022-11-20T13:01:17;7.53;;;2.00;;
41861;SDS011;27537;57.134;-2.136;2022-11-20T13:06:53;4.95;;;1.83;;
41861;SDS011;27537;57.134;-2.136;2022-11-20T13:09:21;5.32;;;2.00;;
41861;SDS011;27537;57.134;-2.136;2022-11-20T13:17:59;4.90;;;1.75;;
41861;SDS011;27537;57.134;-2.136;2022-11-20T13:20:27;5.78;;;1.80;;
41861;SDS011;27537;57.134;-2.136;2022-11-20T13:22:56;6.30;;;2.35;;
41861;SDS011;27537;57.134;-2.136;2022-11-20T13:25:34;7.47;;;1.80;;
41861;SDS011;27537;57.134;-2.136;2022-11-20T13:28:26;7.00;;;1.80;;
41861;SDS011;27537;57.134;-2.136;2022-11-20T13:30:53;5.68;;;1.90;;
41861;SDS011;27537;57.134;-2.136;2022-11-20T13:36:06;5.60;;;1.60;;
41861;SDS011;27537;57.134;-2.136;2022-11-20T13:38:47;4.82;;;1.70;;
41861;SDS011;27537;57.134;-2.136;2022-11-20T13:41:24;5.57;;;1.98;;
41861;SDS011;27537;57.134;-2.136;2022-11-20T13:46:55;4.80;;;1.38;;
41861;SDS011;27537;57.134;-2.136;2022-11-20T13:49:37;5.57;;;1.73;;
41861;SDS011;27537;57.134;-2.136;2022-11-20T13:52:26;4.85;;;1.60;;
41861;SDS011;27537;57.134;-2.136;2022-11-20T14:01:00;3.35;;;1.50;;
41861;SDS011;27537;57.134;-2.136;2022-11-20T14:03:46;5.43;;;1.50;;
41861;SDS011;27537;57.134;-2.136;2022-11-20T14:06:32;4.35;;;1.30;;
41861;SDS011;27537;57.134;-2.136;2022-11-20T14:09:10;5.18;;;1.67;;
41861;SDS011;27537;57.134;-2.136;2022-11-20T14:11:45;7.32;;;2.78;;
41861;SDS011;27537;57.134;-2.136;2022-11-20T14:14:17;9.05;;;3.10;;
41861;SDS011;27537;57.134;-2.136;2022-11-20T14:16:46;9.95;;;3.00;;
41861;SDS011;27537;57.134;-2.136;2022-11-20T14:24:18;10.43;;;3.38;;
41861;SDS011;27537;57.134;-2.136;2022-11-20T14:26:47;6.18;;;2.22;;
41861;SDS011;27537;57.134;-2.136;2022-11-20T14:29:14;8.13;;;2.20;;
41861;SDS011;27537;57.134;-2.136;2022-11-20T14:31:47;6.82;;;2.45;;
41861;SDS011;27537;57.134;-2.136;2022-11-20T14:34:26;6.35;;;1.90;;
41861;SDS011;27537;57.134;-2.136;2022-11-20T14:37:02;5.07;;;1.83;;
41861;SDS011;27537;57.134;-2.136;2022-11-20T14:39:33;7.13;;;2.17;;
41861;SDS011;27537;57.134;-2.136;2022-11-20T14:42:01;9.43;;;2.42;;
41861;SDS011;27537;57.134;-2.136;2022-11-20T14:44:40;6.28;;;1.73;;
41861;SDS011;27537;57.134;-2.136;2022-11-20T14:47:08;4.72;;;1.75;;
41861;SDS011;27537;57.134;-2.136;2022-11-20T14:49:38;8.05;;;2.10;;
41861;SDS011;27537;57.134;-2.136;2022-11-20T14:52:17;7.53;;;1.90;;
41861;SDS011;27537;57.134;-2.136;2022-11-20T14:54:50;9.45;;;2.08;;
41861;SDS011;27537;57.134;-2.136;2022-11-20T14:57:24;13.55;;;3.40;;
41861;SDS011;27537;57.134;-2.136;2022-11-20T15:00:06;7.03;;;2.20;;
41861;SDS011;27537;57.134;-2.136;2022-11-20T15:02:53;6.38;;;2.20;;
41861;SDS011;27537;57.134;-2.136;2022-11-20T15:05:22;10.50;;;2.97;;
41861;SDS011;27537;57.134;-2.136;2022-11-20T15:08:13;11.00;;;2.90;;
41861;SDS011;27537;57.134;-2.136;2022-11-20T15:10:47;7.95;;;2.60;;
41861;SDS011;27537;57.134;-2.136;2022-11-20T15:13:16;12.57;;;3.30;;
41861;SDS011;27537;57.134;-2.136;2022-11-20T15:15:50;12.65;;;3.05;;
41861;SDS011;27537;57.134;-2.136;2022-11-20T15:18:22;9.15;;;2.65;;
41861;SDS011;27537;57.134;-2.136;2022-11-20T15:20:54;10.88;;;2.65;;
41861;SDS011;27537;57.134;-2.136;2022-11-20T15:23:22;9.65;;;2.85;;
41861;SDS011;27537;57.134;-2.136;2022-11-20T15:25:49;9.35;;;2.20;;
41861;SDS011;27537;57.134;-2.136;2022-11-20T15:28:20;6.18;;;2.28;;
41861;SDS011;27537;57.134;-2.136;2022-11-20T15:30:49;9.48;;;3.10;;
41861;SDS011;27537;57.134;-2.136;2022-11-20T15:33:16;8.57;;;2.58;;
41861;SDS011;27537;57.134;-2.136;2022-11-20T15:35:44;9.45;;;3.05;;
41861;SDS011;27537;57.134;-2.136;2022-11-20T15:38:11;8.50;;;2.47;;
41861;SDS011;27537;57.134;-2.136;2022-11-20T15:40:38;7.80;;;2.50;;
41861;SDS011;27537;57.134;-2.136;2022-11-20T15:43:04;8.23;;;3.35;;
41861;SDS011;27537;57.134;-2.136;2022-11-20T15:48:08;11.05;;;3.35;;
41861;SDS011;27537;57.134;-2.136;2022-11-20T15:50:41;6.97;;;2.88;;
41861;SDS011;27537;57.134;-2.136;2022-11-20T15:53:15;11.27;;;3.20;;
41861;SDS011;27537;57.134;-2.136;2022-11-20T15:55:42;7.28;;;2.90;;
41861;SDS011;27537;57.134;-2.136;2022-11-20T15:58:08;9.80;;;2.20;;
41861;SDS011;27537;57.134;-2.136;2022-11-20T16:00:35;7.25;;;2.65;;
41861;SDS011;27537;57.134;-2.136;2022-11-20T16:03:02;7.13;;;2.83;;
41861;SDS011;27537;57.134;-2.136;2022-11-20T16:05:29;6.22;;;2.45;;
41861;SDS011;27537;57.134;-2.136;2022-11-20T16:07:56;9.02;;;2.97;;
41861;SDS011;27537;57.134;-2.136;2022-11-20T16:10:23;7.80;;;2.60;;
41861;SDS011;27537;57.134;-2.136;2022-11-20T16:12:50;8.43;;;2.85;;
41861;SDS011;27537;57.134;-2.136;2022-11-20T16:15:56;6.18;;;2.30;;
41861;SDS011;27537;57.134;-2.136;2022-11-20T16:18:24;5.22;;;2.15;;
41861;SDS011;27537;57.134;-2.136;2022-11-20T16:20:52;5.80;;;2.33;;
41861;SDS011;27537;57.134;-2.136;2022-11-20T16:23:19;7.00;;;2.55;;
41861;SDS011;27537;57.134;-2.136;2022-11-20T16:25:47;5.78;;;2.50;;
41861;SDS011;27537;57.134;-2.136;2022-11-20T16:28:14;7.25;;;2.90;;
41861;SDS011;27537;57.134;-2.136;2022-11-20T16:30:44;8.43;;;2.70;;
41861;SDS011;27537;57.134;-2.136;2022-11-20T16:33:13;8.93;;;4.07;;
41861;SDS011;27537;57.134;-2.136;2022-11-20T16:35:41;9.05;;;3.60;;
41861;SDS011;27537;57.134;-2.136;2022-11-20T16:38:09;8.52;;;3.90;;
41861;SDS011;27537;57.134;-2.136;2022-11-20T16:40:36;10.38;;;4.60;;